»·PEaware :: N711DS KIFP-KFLG

N711DS :: KIFP-KFLG

FLIGHT INFORMATION

Flight Status: Arrived
Operator: Privately registered:
United States
More flights under this callsign
Pilot: John H. (10732)
Aircraft: Unknown
(B60T)
More flights by this aircraft type
Origin: KIFP Laughlin/Bullhead Intl
United States
Destination: KFLG Flagstaff Pulliam
United States
More flights between these airports :: More routes between these airports
Route: EED V12 JUWSO
File this flight plan on PilotEdge
Remarks:
Altitude:
(Current/Filed)
25,000ft
Speed:
(Current/Filed)
300kts
Departed: 03-Jun-19 04:56 PM
Arrived: 03-Jun-19 05:37 PM
Distance/Time
Traveled:
142nm/0:40
Distance/Time
To Go:
Arrived

Flight Plot

Page will automatically refresh every two minutes.

Flight plan parsing failed; only flown route is shown


Map Options




Map Legend


Flown Route
Filed Route
Departure Airport
Arrival Airport
Navaid (VOR, NDB)
Fix

Horizontal Profiles

Position Reports

Time Latitude Longitude Heading Altitude Ground
Speed
03-Jun-19 15:51 35.160719 -114.556400 271 644ft 0kts
03-Jun-19 15:52 35.160719 -114.556400 271 644ft 0kts
03-Jun-19 15:53 35.160719 -114.556400 271 644ft 0kts
03-Jun-19 15:54 35.160719 -114.556400 271 644ft 0kts
03-Jun-19 15:55 35.160719 -114.556400 271 644ft 0kts
03-Jun-19 15:56 35.160719 -114.556400 271 644ft 0kts
03-Jun-19 15:57 35.160719 -114.556400 271 644ft 0kts
03-Jun-19 15:58 35.160719 -114.556400 271 644ft 0kts
03-Jun-19 15:59 35.160719 -114.556400 271 644ft 0kts
03-Jun-19 16:00 35.160719 -114.556400 271 644ft 0kts
03-Jun-19 16:01 35.160719 -114.556400 271 644ft 0kts
03-Jun-19 16:02 35.160719 -114.556400 271 644ft 0kts
03-Jun-19 16:03 35.160719 -114.556400 271 644ft 0kts
03-Jun-19 16:04 35.160719 -114.556400 271 644ft 0kts
03-Jun-19 16:05 35.160719 -114.556400 271 644ft 0kts
03-Jun-19 16:06 35.160719 -114.556400 271 644ft 0kts
03-Jun-19 16:07 35.160719 -114.556400 271 644ft 0kts
03-Jun-19 16:08 35.160719 -114.556400 271 644ft 0kts
03-Jun-19 16:09 35.160719 -114.556400 271 644ft 0kts
03-Jun-19 16:10 35.160719 -114.556400 271 644ft 0kts
03-Jun-19 16:11 35.160719 -114.556400 271 644ft 0kts
03-Jun-19 16:12 35.160719 -114.556400 271 644ft 0kts
03-Jun-19 16:13 35.160719 -114.556400 271 644ft 0kts
03-Jun-19 16:14 35.160719 -114.556400 271 644ft 0kts
03-Jun-19 16:15 35.160719 -114.556400 271 644ft 0kts
03-Jun-19 16:16 35.160719 -114.556400 271 644ft 0kts
03-Jun-19 16:17 35.160719 -114.556400 271 644ft 0kts
03-Jun-19 16:18 35.160719 -114.556400 271 644ft 0kts
03-Jun-19 16:19 35.160719 -114.556400 271 644ft 0kts
03-Jun-19 16:20 35.160719 -114.556400 271 644ft 0kts
03-Jun-19 16:21 35.160719 -114.556400 271 644ft 0kts
03-Jun-19 16:22 35.160719 -114.556400 271 644ft 0kts
03-Jun-19 16:23 35.160719 -114.556400 271 644ft 0kts
03-Jun-19 16:24 35.160719 -114.556400 271 644ft 0kts
03-Jun-19 16:25 35.160719 -114.556400 271 644ft 0kts
03-Jun-19 16:26 35.160719 -114.556400 271 644ft 0kts
03-Jun-19 16:27 35.160719 -114.556400 271 644ft 0kts
03-Jun-19 16:28 35.160719 -114.556400 271 644ft 0kts
03-Jun-19 16:29 35.160719 -114.556400 271 644ft 0kts
03-Jun-19 16:30 35.160719 -114.556400 271 644ft 0kts
03-Jun-19 16:31 35.160719 -114.556400 271 644ft 0kts
03-Jun-19 16:32 35.160719 -114.556400 271 644ft 0kts
03-Jun-19 16:34 35.160719 -114.556400 271 644ft 0kts
03-Jun-19 16:35 35.160719 -114.556400 271 644ft 0kts
03-Jun-19 16:36 35.160719 -114.556400 271 644ft 0kts
03-Jun-19 16:37 35.160719 -114.556400 271 644ft 0kts
03-Jun-19 16:38 35.160719 -114.556400 271 644ft 0kts
03-Jun-19 16:39 35.160719 -114.556400 271 644ft 0kts
03-Jun-19 16:40 35.160719 -114.556400 271 644ft 0kts
03-Jun-19 16:41 35.160719 -114.556400 271 644ft 0kts
03-Jun-19 16:42 35.160719 -114.556400 271 644ft 0kts
03-Jun-19 16:43 35.160719 -114.556400 271 644ft 0kts
03-Jun-19 16:44 35.160719 -114.556400 271 644ft 0kts
03-Jun-19 16:45 35.160719 -114.556400 271 644ft 0kts
03-Jun-19 16:46 35.160719 -114.556400 271 644ft 0kts
03-Jun-19 16:47 35.160720 -114.556402 271 644ft 0kts
03-Jun-19 16:48 35.160720 -114.556402 271 644ft 0kts
03-Jun-19 16:49 35.160720 -114.556402 271 644ft 0kts
03-Jun-19 16:50 35.160720 -114.556403 271 644ft 0kts
03-Jun-19 16:50 35.160720 -114.556405 271 644ft 0kts
03-Jun-19 16:52 35.160720 -114.556409 271 644ft 0kts
03-Jun-19 16:53 35.160839 -114.556951 313 644ft 8kts
03-Jun-19 16:53 35.162937 -114.558283 287 644ft 8kts
03-Jun-19 16:54 35.166188 -114.559206 268 644ft 6kts
03-Jun-19 16:56 35.159580 -114.559688 177 732ft 140kts
03-Jun-19 16:56 35.116964 -114.556306 174 3124ft 200kts
03-Jun-19 16:57 35.062203 -114.540033 169 6129ft 201kts
03-Jun-19 16:58 35.007495 -114.527154 170 9360ft 199kts
03-Jun-19 16:59 34.952165 -114.514897 170 12867ft 203kts
03-Jun-19 17:00 34.895350 -114.502421 170 16380ft 213kts
03-Jun-19 17:01 34.835951 -114.489427 169 19890ft 218kts
03-Jun-19 17:02 34.778365 -114.470389 141 23377ft 215kts
03-Jun-19 17:03 34.766052 -114.394913 93 24842ft 275kts
03-Jun-19 17:04 34.761519 -114.297245 92 24832ft 299kts
03-Jun-19 17:05 34.758891 -114.194889 91 24829ft 304kts
03-Jun-19 17:06 34.756049 -114.091201 92 24840ft 308kts
03-Jun-19 17:07 34.753166 -113.986821 92 24841ft 310kts
03-Jun-19 17:08 34.750219 -113.881525 93 24871ft 310kts
03-Jun-19 17:09 34.747180 -113.776700 93 24889ft 311kts
03-Jun-19 17:10 34.744048 -113.671643 94 24899ft 310kts
03-Jun-19 17:11 34.740845 -113.567021 94 24934ft 308kts
03-Jun-19 17:12 34.737573 -113.463152 94 24932ft 307kts
03-Jun-19 17:13 34.734229 -113.359465 95 24971ft 306kts
03-Jun-19 17:14 34.730799 -113.256274 94 24970ft 306kts
03-Jun-19 17:15 34.727687 -113.152736 90 24882ft 310kts
03-Jun-19 17:16 34.753909 -113.052383 70 23478ft 302kts
03-Jun-19 17:17 34.782375 -112.959943 72 21977ft 285kts
03-Jun-19 17:18 34.808312 -112.869625 72 20482ft 282kts
03-Jun-19 17:19 34.834072 -112.778411 72 18980ft 287kts
03-Jun-19 17:20 34.857904 -112.693541 72 17600ft 287kts
03-Jun-19 17:21 34.883597 -112.601696 72 16095ft 281kts
03-Jun-19 17:22 34.908537 -112.512322 72 14598ft 278kts
03-Jun-19 17:23 34.933423 -112.422808 72 13094ft 278kts
03-Jun-19 17:24 34.957632 -112.335538 72 11989ft 255kts
03-Jun-19 17:25 34.979111 -112.258250 72 11950ft 236kts
03-Jun-19 17:26 35.000545 -112.180999 72 11956ft 249kts
03-Jun-19 17:27 35.022731 -112.100248 72 11957ft 251kts
03-Jun-19 17:28 35.044407 -112.021188 72 11757ft 241kts
03-Jun-19 17:29 35.066266 -111.941044 73 10426ft 251kts
03-Jun-19 17:30 35.088303 -111.860061 72 9142ft 249kts
03-Jun-19 17:31 35.126195 -111.798787 43 9459ft 223kts
03-Jun-19 17:32 35.172441 -111.746587 42 9459ft 227kts
03-Jun-19 17:33 35.214481 -111.694301 73 9448ft 177kts
03-Jun-19 17:34 35.192623 -111.645569 139 8928ft 143kts
03-Jun-19 17:35 35.159854 -111.647884 225 7504ft 134kts
03-Jun-19 17:36 35.142304 -111.667404 310 7014ft 23kts
03-Jun-19 17:37 35.140730 -111.670507 221 7014ft 12kts
03-Jun-19 17:38 35.138014 -111.673346 228 7014ft 12kts
03-Jun-19 17:39 35.138486 -111.673687 353 7014ft 0kts
03-Jun-19 17:40 35.138486 -111.673687 353 7014ft 0kts
03-Jun-19 17:41 35.147959 -111.661023 222 7042ft 104kts
03-Jun-19 17:42 35.138486 -111.673686 353 7014ft 0kts
03-Jun-19 17:43 35.138486 -111.673686 353 7014ft 0kts
03-Jun-19 17:44 35.138486 -111.673686 353 7014ft 0kts
03-Jun-19 17:45 35.138486 -111.673686 353 7014ft 0kts
03-Jun-19 17:46 35.144147 -111.665107 222 7014ft 65kts
03-Jun-19 17:47 35.138486 -111.673686 353 7014ft 0kts
03-Jun-19 17:48 35.138486 -111.673686 353 7014ft 0kts
03-Jun-19 17:49 35.138486 -111.673686 353 7014ft 0kts
03-Jun-19 17:50 35.138486 -111.673686 353 7014ft 0kts

Navigation Log

Ident Type
Flight plan parsing failed, navigation log unavailable